Time;durP1;ratioP1;P1;durP2;ratioP2;P2;SDS_P1;SDS_P2;PMS_P1;PMS_P2;Temp;Humidity;BMP_temperature;BMP_pressure;BME280_temperature;BME280_humidity;BME280_pressure;Samples;Min_cycle;Max_cycle;Signal;HPM_P1;HPM_P2
2021/07/22 00:01:40;;;;;;;19.50;12.68;;;15.00;99.90;;;13.78;92.44;101902.34;3548812;39;103062;-40
2021/07/22 00:04:08;;;;;;;20.08;13.32;;;15.00;99.90;;;13.79;92.68;101900.44;3548641;39;102915;-40
2021/07/22 00:06:35;;;;;;;20.88;12.98;;;15.00;99.90;;;13.82;92.81;101897.31;3548769;39;102696;-40
2021/07/22 00:09:02;;;;;;;16.38;11.88;;;15.10;99.90;;;13.85;92.68;101894.13;3548415;39;102663;-41
2021/07/22 00:11:30;;;;;;;16.55;11.05;;;15.10;99.90;;;13.89;92.92;101903.63;3548869;39;104118;-40
2021/07/22 00:13:57;;;;;;;18.42;12.00;;;15.10;99.90;;;13.93;93.26;101902.16;3548554;39;102393;-37
2021/07/22 00:16:24;;;;;;;17.48;11.55;;;15.20;99.90;;;13.99;93.55;101902.38;3548937;39;102304;-41
2021/07/22 00:18:52;;;;;;;17.25;11.98;;;15.20;99.90;;;14.04;93.93;101895.22;3548566;39;102615;-40
2021/07/22 00:21:19;;;;;;;19.00;11.18;;;15.30;99.90;;;14.08;94.26;101895.66;3548854;39;104229;-41
2021/07/22 00:23:46;;;;;;;15.30;10.70;;;15.30;99.90;;;14.13;94.47;101887.63;3548036;39;102186;-40
2021/07/22 00:26:14;;;;;;;18.43;10.77;;;15.40;99.90;;;14.18;94.66;101882.34;3548652;39;103136;-40
2021/07/22 00:28:41;;;;;;;15.35;10.57;;;15.40;99.90;;;14.24;94.60;101894.38;3548702;39;102750;-40
2021/07/22 00:31:08;;;;;;;16.65;11.07;;;15.50;99.90;;;14.29;94.68;101890.97;3548513;39;102120;-40
2021/07/22 00:33:35;;;;;;;16.02;10.23;;;15.50;99.90;;;14.33;94.93;101890.34;3548280;39;102461;-40
2021/07/22 00:36:10;;;;;;;15.98;10.73;;;15.50;99.90;;;14.36;95.05;101886.34;3548669;39;102316;-40
2021/07/22 00:38:38;;;;;;;15.50;10.75;;;15.60;99.90;;;14.39;95.20;101886.75;3549730;39;102364;-40
2021/07/22 00:41:10;;;;;;;15.98;11.32;;;15.60;99.90;;;14.43;94.93;101881.69;3549783;39;102182;-43
2021/07/22 00:43:40;;;;;;;17.50;11.52;;;15.70;99.90;;;14.46;94.94;101878.53;3549688;39;102241;-40
2021/07/22 00:46:09;;;;;;;16.60;11.35;;;15.70;99.90;;;14.48;94.79;101883.81;3549459;39;102702;-40
2021/07/22 00:48:38;;;;;;;16.02;11.20;;;15.70;99.90;;;14.50;95.14;101882.53;3540835;39;103819;-40
2021/07/22 00:51:06;;;;;;;17.38;11.90;;;15.70;99.90;;;14.53;95.42;101882.09;3540424;39;103262;-40
2021/07/22 00:53:35;;;;;;;20.63;14.13;;;15.80;99.90;;;14.55;95.41;101875.53;3549721;39;102360;-40
2021/07/22 00:56:04;;;;;;;21.33;14.20;;;15.80;99.90;;;14.56;95.31;101886.34;3549460;39;103275;-40
2021/07/22 00:58:33;;;;;;;22.98;14.32;;;15.80;99.90;;;14.59;95.21;101879.59;3549517;39;102313;-40
2021/07/22 01:01:01;;;;;;;21.17;14.23;;;15.80;99.90;;;14.63;95.58;101878.91;3540443;39;104282;-40
2021/07/22 01:03:29;;;;;;;21.05;14.00;;;15.80;99.90;;;14.66;95.74;101877.66;3549567;39;104120;-40
2021/07/22 01:05:57;;;;;;;23.83;14.93;;;15.90;99.90;;;14.69;95.72;101877.22;3549167;39;102441;-40
2021/07/22 01:08:26;;;;;;;21.65;13.68;;;15.90;99.90;;;14.72;95.63;101876.81;3540474;39;102441;-40
2021/07/22 01:11:29;;;;;;;18.50;12.25;;;15.90;99.90;;;14.75;95.75;101872.81;3542734;39;102901;-40
2021/07/22 01:13:56;;;;;;;;;;;16.00;99.90;;;14.78;95.69;101875.97;3550144;39;102084;-40
2021/07/22 01:16:24;;;;;;;21.92;12.25;;;16.00;99.90;;;14.80;95.61;101875.75;3540641;39;105109;-40
2021/07/22 01:18:52;;;;;;;18.10;11.25;;;16.00;99.90;;;14.81;95.84;101870.03;3549853;39;103313;-40
2021/07/22 01:21:22;;;;;;;;;;;16.00;99.90;;;14.81;95.77;101871.94;3549686;39;105769;-40
2021/07/22 01:23:50;;;;;;;15.95;9.73;;;16.00;99.90;;;14.75;95.56;101857.16;3549941;39;103129;-42
2021/07/22 01:26:33;;;;;;;14.50;9.77;;;16.00;99.90;;;14.78;95.48;101867.72;3550078;39;102197;-40
2021/07/22 01:29:23;;;;;;;13.93;9.93;;;16.00;99.90;;;14.77;94.96;101865.19;3542936;39;102080;-40
2021/07/22 01:31:51;;;;;;;15.65;10.70;;;16.00;99.90;;;14.73;94.89;101862.03;3540196;39;103373;-40
2021/07/22 01:34:19;;;;;;;18.42;10.25;;;16.00;99.90;;;14.70;94.59;101865.19;3540215;39;102680;-40
2021/07/22 01:36:47;;;;;;;;;;;16.00;99.90;;;14.65;94.60;101862.25;3541042;39;103148;-40
2021/07/22 01:39:14;;;;;;;15.15;9.65;;;15.90;99.90;;;14.60;94.65;101859.31;3540491;39;102294;-40
2021/07/22 01:41:41;;;;;;;13.10;9.15;;;15.90;99.90;;;14.53;94.38;101864.78;3540580;39;104316;-40
2021/07/22 01:44:09;;;;;;;16.15;9.57;;;15.80;99.90;;;14.48;94.39;101862.69;3549161;39;103726;-41
2021/07/22 01:46:37;;;;;;;;;;;15.80;99.90;;;14.41;94.44;101863.75;3683652;22;104482;-38
2021/07/22 01:49:04;;;;;;;16.20;8.98;;;15.70;99.90;;;14.35;94.32;101859.97;3549872;39;102232;-39
2021/07/22 01:51:33;;;;;;;14.02;9.43;;;15.70;99.90;;;14.29;94.05;101863.53;3540400;39;104384;-38
2021/07/22 01:54:05;;;;;;;14.35;9.10;;;15.60;99.90;;;14.24;94.08;101865.03;3549291;39;104476;-38
2021/07/22 01:56:32;;;;;;;14.52;8.57;;;15.50;99.90;;;14.18;93.93;101865.88;3549812;39;104115;-39
2021/07/22 01:59:00;;;;;;;15.15;8.63;;;15.50;99.90;;;14.12;93.65;101858.50;3549499;39;102477;-38
2021/07/22 02:01:29;;;;;;;11.73;8.02;;;15.40;99.90;;;14.03;93.34;101848.75;3549415;39;102308;-38
2021/07/22 02:04:16;;;;;;;15.27;9.48;;;15.40;99.90;;;13.98;93.18;101859.53;3549270;39;102491;-38
2021/07/22 02:06:44;;;;;;;12.65;8.45;;;15.30;99.90;;;13.92;93.17;101859.31;3549726;39;102379;-38
2021/07/22 02:09:14;;;;;;;13.80;8.50;;;15.20;99.90;;;13.88;92.95;101863.53;3549232;39;102568;-39
2021/07/22 02:11:42;;;;;;;15.68;9.02;;;15.20;99.90;;;13.84;92.89;101858.69;3549806;39;104127;-39
2021/07/22 02:14:09;;;;;;;12.98;8.88;;;15.20;99.90;;;13.79;92.77;101864.78;3549771;39;102198;-38
2021/07/22 02:16:39;;;;;;;12.30;7.95;;;15.10;99.90;;;13.74;92.84;101859.94;3549864;39;103205;-38
2021/07/22 02:19:07;;;;;;;14.20;9.05;;;15.00;99.90;;;13.70;92.78;101860.56;3549851;39;102482;-38
2021/07/22 02:21:43;;;;;;;13.57;9.23;;;15.00;99.90;;;13.64;92.68;101856.75;3540465;39;102525;-39
2021/07/22 02:24:13;;;;;;;14.20;9.20;;;14.90;99.90;;;13.60;92.62;101864.56;3540025;39;103501;-39
2021/07/22 02:26:57;;;;;;;14.18;9.10;;;14.90;99.90;;;13.54;92.87;101862.66;3540285;39;103158;-38
2021/07/22 02:29:24;;;;;;;12.82;8.48;;;14.80;99.90;;;13.51;93.17;101863.03;3549494;39;102476;-38
2021/07/22 02:31:52;;;;;;;15.35;8.80;;;14.80;99.90;;;13.47;93.35;101872.72;3549757;39;104379;-38
2021/07/22 02:34:19;;;;;;;15.18;8.05;;;14.80;99.90;;;13.44;93.30;101870.41;3549454;39;102189;-38
2021/07/22 02:36:47;;;;;;;13.88;8.43;;;14.80;99.90;;;13.41;93.39;101859.81;3549085;39;102407;-39
2021/07/22 02:39:27;;;;;;;12.85;8.10;;;14.80;99.90;;;13.36;nan;101866.78;3540206;39;102559;-38
2021/07/22 02:41:55;;;;;;;12.38;7.63;;;14.70;99.90;;;13.33;93.39;101871.81;3549188;39;102326;-38
2021/07/22 02:44:23;;;;;;;13.40;8.20;;;14.70;99.90;;;13.27;93.38;101864.41;3540288;39;103011;-38
2021/07/22 02:47:12;;;;;;;14.00;7.73;;;14.60;99.90;;;13.25;93.33;101867.34;3549202;39;102253;-38
2021/07/22 02:49:42;;;;;;;13.27;8.63;;;14.60;99.90;;;13.22;93.43;101865.03;3540392;39;104943;-38
2021/07/22 02:52:13;;;;;;;13.13;8.00;;;14.60;99.90;;;13.17;93.37;101864.78;3540206;39;104286;-40
2021/07/22 02:54:45;;;;;;;14.18;8.52;;;14.50;99.90;;;13.13;93.45;101869.84;3540254;39;102587;-38
2021/07/22 02:57:12;;;;;;;13.07;8.57;;;14.50;99.90;;;13.12;93.62;101870.88;3549084;39;102488;-38
2021/07/22 02:59:42;;;;;;;11.43;7.55;;;14.40;99.90;;;13.08;93.79;101866.88;3539847;39;102830;-39
2021/07/22 03:02:09;;;;;;;15.55;8.32;;;14.50;99.90;;;13.11;93.73;101873.84;3549249;39;103196;-38
2021/07/22 03:04:37;;;;;;;14.25;8.57;;;14.40;99.90;;;13.09;93.93;101871.28;3540061;39;103472;-38
2021/07/22 03:07:14;;;;;;;13.48;8.35;;;14.40;99.90;;;13.09;94.14;101871.28;3540123;39;102349;-39
2021/07/22 03:09:42;;;;;;;14.25;8.07;;;14.40;99.90;;;13.09;94.35;101869.41;3549433;39;102213;-38
2021/07/22 03:12:11;;;;;;;12.98;8.45;;;14.40;99.90;;;13.12;94.26;101867.31;3549078;39;104436;-38
2021/07/22 03:14:49;;;;;;;11.52;8.00;;;14.40;99.90;;;13.11;94.65;101869.19;3539957;39;103416;-38
2021/07/22 03:17:16;;;;;;;13.60;7.95;;;14.50;99.90;;;13.13;94.80;101871.75;3548929;39;102201;-41
2021/07/22 03:19:49;;;;;;;13.48;7.85;;;14.40;99.90;;;13.14;95.17;101867.94;3549357;39;103303;-41
2021/07/22 03:22:20;;;;;;;13.32;7.72;;;14.50;99.90;;;13.14;95.65;101868.81;3549272;39;102310;-41
2021/07/22 03:25:14;;;;;;;13.38;8.13;;;14.50;99.90;;;13.16;95.86;101869.44;3536844;39;102351;-41
2021/07/22 03:28:20;;;;;;;12.00;7.95;;;14.50;99.90;;;13.19;96.00;101870.91;3543361;39;102316;-41
2021/07/22 03:30:51;;;;;;;11.85;8.05;;;14.50;99.90;;;13.18;95.87;101861.00;3539915;39;103864;-41
2021/07/22 03:33:24;;;;;;;12.45;8.23;;;14.50;99.90;;;13.17;96.16;101867.53;3549268;39;102956;-41
2021/07/22 03:35:58;;;;;;;12.50;8.05;;;14.50;99.90;;;13.19;96.36;101854.47;3539934;39;102538;-41
2021/07/22 03:38:29;;;;;;;12.05;7.20;;;14.50;99.90;;;13.19;96.13;101859.94;3540142;39;104045;-41
2021/07/22 03:41:16;;;;;;;12.50;8.05;;;14.50;99.90;;;13.16;96.07;101855.75;3549524;39;102393;-41
2021/07/22 03:43:46;;;;;;;12.25;7.68;;;14.50;99.90;;;13.15;96.22;101856.81;3548223;39;102430;-41
2021/07/22 03:46:14;;;;;;;12.80;8.07;;;14.50;99.90;;;13.14;95.65;101854.25;3539860;39;102822;-41
2021/07/22 03:48:42;;;;;;;11.35;7.10;;;14.50;99.90;;;13.12;95.90;101859.09;3549590;39;103117;-41
2021/07/22 03:51:10;;;;;;;13.15;7.38;;;14.40;99.90;;;13.09;95.89;101866.66;3539744;39;104722;-41
2021/07/22 03:53:38;;;;;;;12.77;8.20;;;14.40;99.90;;;13.13;95.98;101858.03;3548100;39;102291;-41
2021/07/22 03:56:06;;;;;;;12.60;7.90;;;14.50;99.90;;;13.13;96.10;101869.00;3539838;39;102580;-41
2021/07/22 03:58:41;;;;;;;13.65;8.52;;;14.40;99.90;;;13.12;96.07;101862.66;3549062;39;103128;-41
2021/07/22 04:01:27;;;;;;;12.80;7.63;;;14.50;99.90;;;13.13;96.11;101860.78;3549185;39;102220;-41
2021/07/22 04:03:56;;;;;;;12.98;8.23;;;14.40;99.90;;;13.13;95.73;101867.13;3539588;39;105328;-40
2021/07/22 04:06:25;;;;;;;13.50;8.57;;;14.40;99.90;;;13.13;95.60;101864.38;3548906;39;102569;-41
2021/07/22 04:08:54;;;;;;;12.10;7.90;;;14.40;99.90;;;13.12;95.66;101862.66;3548908;39;102395;-41
2021/07/22 04:11:59;;;;;;;12.50;8.25;;;14.40;99.90;;;13.17;95.93;101862.06;3539400;39;102474;-41
2021/07/22 04:14:56;;;;;;;12.98;7.78;;;14.50;99.90;;;13.18;96.11;101864.59;3495887;39;103159;-41
2021/07/22 04:17:36;;;;;;;14.05;7.88;;;14.50;99.90;;;13.19;96.02;101865.44;3540952;39;102652;-41
2021/07/22 04:20:11;;;;;;;12.90;7.80;;;14.50;99.90;;;13.20;96.01;101865.25;3540938;39;104139;-41
2021/07/22 04:22:52;;;;;;;12.23;7.50;;;14.50;99.90;;;13.22;95.92;101865.88;3550312;39;103206;-41
2021/07/22 04:25:52;;;;;;;12.05;7.53;;;14.50;99.90;;;13.26;95.97;101869.06;3527182;39;103098;-41
2021/07/22 04:28:24;;;;;;;12.13;8.10;;;14.60;99.90;;;13.32;96.04;101868.25;3541013;39;102210;-38
2021/07/22 04:30:52;;;;;;;13.82;8.88;;;14.60;99.90;;;13.35;96.01;101869.72;3540743;39;105945;-38
2021/07/22 04:33:45;;;;;;;13.43;8.13;;;14.60;99.90;;;13.38;95.96;101859.19;3542025;39;102381;-38
2021/07/22 04:36:31;;;;;;;13.82;8.35;;;14.60;99.90;;;13.40;95.63;101867.22;3550306;39;102252;-38
2021/07/22 04:39:22;;;;;;;13.52;8.32;;;14.70;99.90;;;13.48;95.77;101868.94;3535300;39;102451;-38
2021/07/22 04:42:25;;;;;;;14.20;8.10;;;14.70;99.90;;;13.54;95.79;101868.13;3498832;40;103047;-38
2021/07/22 04:45:06;;;;;;;12.77;8.52;;;14.70;99.90;;;13.62;96.10;101873.41;3534914;39;102480;-38
2021/07/22 04:47:56;;;;;;;13.77;8.50;;;14.80;99.90;;;13.74;96.53;101865.44;3541255;39;104654;-38
2021/07/22 04:50:48;;;;;;;12.25;8.30;;;14.90;99.90;;;13.88;96.82;101862.69;3550046;39;102259;-38
2021/07/22 04:53:37;;;;;;;13.88;8.68;;;15.10;99.90;;;13.98;97.27;101860.41;3540195;39;104301;-38
2021/07/22 04:56:06;;;;;;;13.88;9.13;;;15.10;99.90;;;14.08;97.10;101865.47;3540912;39;102782;-38
2021/07/22 04:58:36;;;;;;;15.68;9.68;;;15.30;99.90;;;14.18;97.30;101865.88;3549428;39;103297;-39
2021/07/22 05:01:10;;;;;;;16.73;9.30;;;15.30;99.90;;;14.27;97.68;101857.41;3540853;39;103295;-38
2021/07/22 05:03:38;;;;;;;14.70;9.63;;;15.40;99.90;;;14.37;97.84;101855.94;3540706;39;103160;-38
2021/07/22 05:06:08;;;;;;;15.95;9.80;;;15.50;99.90;;;14.46;97.71;101863.97;3549576;39;102315;-39
2021/07/22 05:09:07;;;;;;;15.63;9.63;;;15.60;99.90;;;14.55;97.74;101868.16;3537628;39;102593;-38
2021/07/22 05:12:02;;;;;;;15.20;9.38;;;15.70;99.90;;;14.64;97.90;101860.56;3550003;39;102381;-38
2021/07/22 05:14:41;;;;;;;16.95;10.57;;;15.80;99.90;;;14.72;97.97;101863.09;3540670;39;103194;-38
2021/07/22 05:17:38;;;;;;;15.18;9.63;;;15.80;99.90;;;14.80;98.06;101867.53;3547973;39;102235;-39
2021/07/22 05:20:25;;;;;;;15.93;10.15;;;16.00;99.90;;;14.87;97.72;101862.00;3550301;39;102203;-39
2021/07/22 05:23:02;;;;;;;14.73;10.33;;;16.00;99.90;;;14.93;97.80;101863.88;3549306;39;102326;-38
2021/07/22 05:25:39;;;;;;;13.65;9.43;;;16.10;99.90;;;14.98;97.55;101861.31;3540399;39;103062;-38
2021/07/22 05:28:28;;;;;;;15.10;9.98;;;16.10;99.90;;;15.06;97.47;101863.81;3549957;39;102403;-38
2021/07/22 05:31:11;;;;;;;15.88;10.20;;;16.20;99.90;;;15.15;97.13;101871.84;3548996;39;104387;-39
2021/07/22 05:34:04;;;;;;;14.50;9.50;;;16.30;99.90;;;15.25;97.35;101869.47;3548164;39;102220;-39
2021/07/22 05:36:51;;;;;;;15.18;9.52;;;16.40;99.90;;;15.36;97.69;101870.69;3540443;39;105769;-38
2021/07/22 05:39:35;;;;;;;14.80;10.10;;;16.50;99.90;;;15.52;97.77;101867.44;3549803;39;102277;-39
2021/07/22 05:42:04;;;;;;;15.70;10.38;;;16.60;99.90;;;15.75;97.73;101870.66;3549448;39;102538;-38
2021/07/22 05:44:31;;;;;;;15.07;10.10;;;16.80;99.90;;;16.00;98.00;101872.66;3549951;39;102585;-38
2021/07/22 05:46:59;;;;;;;18.92;10.82;;;16.90;99.90;;;16.20;97.56;101859.56;3549465;39;103354;-38
2021/07/22 05:49:27;;;;;;;18.25;11.48;;;17.20;99.90;;;16.30;96.81;101867.28;3549829;39;103499;-38
2021/07/22 05:51:54;;;;;;;15.40;10.15;;;17.30;99.90;;;16.31;95.21;101859.88;3550485;39;102318;-38
2021/07/22 05:54:21;;;;;;;18.38;11.32;;;17.30;99.90;;;16.36;94.16;101868.31;3549698;39;102208;-38
2021/07/22 05:56:49;;;;;;;18.77;11.27;;;17.40;99.90;;;16.57;93.79;101871.72;3549877;39;103236;-38
2021/07/22 05:59:16;;;;;;;18.38;11.10;;;17.50;99.90;;;16.68;90.05;101860.78;3549683;39;102719;-38
2021/07/22 06:01:44;;;;;;;17.27;10.18;;;17.70;99.90;;;16.94;90.01;101855.19;3549392;39;103456;-38
2021/07/22 06:04:11;;;;;;;15.07;9.40;;;17.80;99.90;;;17.13;87.42;101867.09;3549869;39;103522;-39
2021/07/22 06:06:42;;;;;;;17.27;10.65;;;18.00;99.90;;;17.37;87.73;101867.19;3549641;39;104158;-39
2021/07/22 06:09:10;;;;;;;14.48;9.60;;;18.20;99.90;;;17.54;86.30;101867.41;3549190;39;102368;-39
2021/07/22 06:11:38;;;;;;;16.20;9.38;;;18.40;99.90;;;17.67;83.53;101875.47;3549751;39;104119;-38
2021/07/22 06:14:05;;;;;;;15.20;9.45;;;18.50;99.90;;;17.86;82.58;101867.13;3549622;39;102256;-39
2021/07/22 06:16:33;;;;;;;16.65;9.43;;;18.70;99.90;;;18.11;83.47;101878.00;3549232;39;103516;-39
2021/07/22 06:19:00;;;;;;;15.75;9.85;;;18.90;99.90;;;18.31;81.72;101870.50;3549543;39;102142;-38
2021/07/22 06:21:28;;;;;;;17.92;10.05;;;19.00;99.90;;;18.41;78.36;101873.47;3549731;39;103717;-38
2021/07/22 06:23:55;;;;;;;17.70;10.40;;;19.20;99.90;;;18.57;77.14;101873.84;3549283;39;102401;-37
2021/07/22 06:26:23;;;;;;;17.00;9.75;;;19.30;99.90;;;18.71;74.10;101872.50;3549779;39;102311;-39
2021/07/22 06:28:50;;;;;;;17.33;10.15;;;19.40;99.90;;;18.91;73.85;101869.34;3549321;39;102125;-38
2021/07/22 06:31:18;;;;;;;16.85;10.15;;;19.60;99.90;;;19.09;71.80;101873.88;3549490;39;102379;-39
2021/07/22 06:33:45;;;;;;;17.33;9.52;;;19.80;99.90;;;19.30;72.46;101873.50;3549396;39;102928;-39
2021/07/22 06:36:12;;;;;;;18.88;10.95;;;20.00;99.90;;;19.51;71.06;101874.72;3549272;39;104103;-39
2021/07/22 06:38:40;;;;;;;18.17;10.68;;;20.20;99.90;;;19.55;68.53;101870.38;3549854;39;102471;-39
2021/07/22 06:41:09;;;;;;;17.20;10.00;;;20.30;99.90;;;19.76;70.87;101874.38;3549481;39;103698;-39
2021/07/22 06:43:37;;;;;;;17.88;10.65;;;20.40;99.90;;;19.83;68.08;101876.97;3549107;39;102545;-39
2021/07/22 06:46:06;;;;;;;17.42;10.55;;;20.50;99.90;;;20.07;68.96;101882.38;3540173;39;103226;-38
2021/07/22 06:48:33;;;;;;;16.48;10.35;;;20.70;99.90;;;20.19;66.33;101882.31;3548959;39;102704;-38
2021/07/22 06:51:01;;;;;;;;;;;20.80;99.90;;;20.32;67.04;101873.66;3550531;39;102257;-39
2021/07/22 06:53:28;;;;;;;20.77;11.57;;;21.00;99.90;;;20.41;65.33;101871.28;3549234;39;104300;-39
2021/07/22 06:55:57;;;;;;;18.13;11.77;;;21.10;99.90;;;20.54;66.15;101884.81;3549427;39;102197;-39
2021/07/22 06:58:24;;;;;;;19.80;11.40;;;21.10;99.90;;;20.68;65.64;101873.34;3549484;39;102265;-39
2021/07/22 07:00:52;;;;;;;21.05;12.45;;;21.30;99.90;;;20.91;63.58;101877.84;3549140;39;102653;-39
2021/07/22 07:03:19;;;;;;;20.42;12.48;;;21.50;99.90;;;20.99;60.10;101879.34;3549248;39;102495;-39
2021/07/22 07:05:47;;;;;;;21.15;12.50;;;21.60;99.90;;;21.19;64.73;101872.34;3549022;39;103300;-38
2021/07/22 07:08:15;;;;;;;19.48;12.13;;;21.80;99.90;;;21.45;64.61;101876.28;3549256;39;102722;-38
2021/07/22 07:10:42;;;;;;;20.55;12.82;;;22.00;99.90;;;21.60;62.31;101881.16;3549012;39;102661;-40
2021/07/22 07:13:12;;;;;;;20.92;11.15;;;22.10;99.90;;;21.68;63.15;101871.56;3549635;39;102513;-39
2021/07/22 07:15:40;;;;;;;19.60;11.88;;;22.20;99.90;;;21.69;62.34;101873.22;3549185;39;102346;-39
2021/07/22 07:18:07;;;;;;;21.45;13.20;;;22.30;99.90;;;21.52;62.91;101876.09;3549188;39;102402;-39
2021/07/22 07:20:36;;;;;;;;;;;22.20;99.90;;;21.33;63.01;101870.03;3550095;39;102385;-39
2021/07/22 07:23:03;;;;;;;21.63;12.37;;;22.10;99.90;;;21.27;64.11;101880.25;3549167;39;102636;-39
2021/07/22 07:25:33;;;;;;;20.15;11.27;;;22.00;99.90;;;21.29;65.54;101879.97;3548380;39;102498;-39
2021/07/22 07:28:00;;;;;;;18.15;11.10;;;22.10;99.90;;;21.27;63.97;101883.03;3548745;39;102173;-39
2021/07/22 07:30:31;;;;;;;18.13;11.70;;;22.00;99.90;;;21.27;62.57;101875.53;3549533;39;102134;-39
2021/07/22 07:32:58;;;;;;;22.27;12.80;;;22.00;99.90;;;21.38;65.83;101875.66;3549144;39;102277;-39
2021/07/22 07:35:26;;;;;;;18.40;11.30;;;22.10;99.90;;;21.38;63.43;101873.69;3548744;39;103528;-39
2021/07/22 07:37:53;;;;;;;;;;;22.10;99.90;;;21.46;63.48;101874.31;3549579;39;103027;-39
2021/07/22 07:40:21;;;;;;;19.02;11.63;;;22.20;99.90;;;21.57;63.84;101878.91;3549702;39;102285;-39
2021/07/22 07:42:49;;;;;;;17.70;11.35;;;22.30;99.90;;;21.62;60.36;101878.94;3549020;39;103611;-39
2021/07/22 07:45:16;;;;;;;18.02;11.20;;;22.30;99.90;;;21.66;60.49;101882.91;3682330;22;102869;-40
2021/07/22 07:47:45;;;;;;;;;;;22.30;99.90;;;21.81;60.06;101881.41;3548830;39;103206;-40
2021/07/22 07:50:13;;;;;;;21.58;10.10;;;22.50;99.90;;;21.92;61.73;101874.00;3548887;39;102378;-40
2021/07/22 07:52:41;;;;;;;16.42;9.80;;;22.60;99.90;;;21.98;60.91;101872.94;3540413;39;102136;-40
2021/07/22 07:55:09;;;;;;;17.45;9.93;;;22.60;99.90;;;22.05;58.93;101878.28;3548929;39;102340;-39
2021/07/22 07:57:37;;;;;;;15.65;9.48;;;22.70;99.90;;;22.18;59.35;101885.31;3549634;39;103534;-41
2021/07/22 08:00:07;;;;;;;15.15;9.25;;;22.80;99.90;;;22.24;58.84;101878.69;3549533;39;102303;-40
2021/07/22 08:02:44;;;;;;;18.13;10.15;;;22.80;99.90;;;22.35;59.63;101876.84;3549252;39;102170;-41
2021/07/22 08:05:12;;;;;;;17.55;9.10;;;22.90;99.90;;;22.31;58.60;101876.53;3549184;39;102309;-40
2021/07/22 08:07:39;;;;;;;16.60;9.95;;;22.90;99.90;;;22.36;57.69;101871.00;3549116;39;102503;-40
2021/07/22 08:10:07;;;;;;;16.73;9.68;;;23.00;99.90;;;22.33;57.73;101874.31;3549384;39;102340;-40
2021/07/22 08:12:38;;;;;;;23.58;11.70;;;23.00;99.90;;;22.35;57.08;101872.09;3549004;39;102410;-40
2021/07/22 08:15:07;;;;;;;25.58;11.70;;;23.00;99.90;;;22.44;56.75;101869.66;3549500;39;103423;-40
2021/07/22 08:17:35;;;;;;;15.20;9.32;;;23.10;99.90;;;22.53;56.16;101870.03;3549482;39;102706;-40
2021/07/22 08:20:10;;;;;;;20.95;10.70;;;23.20;99.90;;;22.54;54.99;101871.72;3548831;39;103216;-40
2021/07/22 08:22:38;;;;;;;17.85;9.90;;;23.20;99.90;;;22.47;55.61;101860.81;3549044;39;102533;-44
2021/07/22 08:25:09;;;;;;;19.05;10.75;;;23.20;99.90;;;22.46;58.82;101863.84;3548358;39;102353;-40
2021/07/22 08:27:37;;;;;;;16.33;10.20;;;23.20;99.90;;;22.45;58.90;101865.78;3549142;39;103378;-40
2021/07/22 08:30:05;;;;;;;16.75;10.35;;;23.10;99.90;;;22.53;57.48;101868.06;3549215;39;104280;-41
2021/07/22 08:32:33;;;;;;;19.92;10.93;;;23.20;99.90;;;22.55;59.19;101873.38;3549010;39;102183;-40
2021/07/22 08:35:04;;;;;;;;;;;23.30;99.90;;;22.59;61.10;101863.38;3549151;39;102793;-40
2021/07/22 08:37:31;;;;;;;17.17;11.40;;;23.20;99.90;;;22.68;59.51;101858.16;3549055;39;102282;-40
2021/07/22 08:40:03;;;;;;;16.23;10.40;;;23.40;99.90;;;22.76;59.52;101859.59;3548722;39;103412;-41
2021/07/22 08:42:35;;;;;;;17.40;10.23;;;23.40;99.90;;;22.88;57.65;101859.38;3548653;39;102627;-39
2021/07/22 08:45:04;;;;;;;16.35;9.38;;;23.50;99.90;;;22.98;55.76;101865.81;3548556;39;102380;-40
2021/07/22 08:47:32;;;;;;;17.00;9.57;;;23.60;99.90;;;23.08;58.87;101873.38;3548392;39;102643;-40
2021/07/22 08:50:00;;;;;;;15.32;9.60;;;23.70;99.90;;;23.17;58.67;101862.53;3548448;39;103235;-40
2021/07/22 08:52:27;;;;;;;21.02;10.07;;;23.70;99.90;;;23.36;56.14;101860.16;3548060;39;102402;-41
2021/07/22 08:54:55;;;;;;;15.40;9.30;;;23.90;99.90;;;23.60;55.50;101861.56;3548629;39;103217;-40
2021/07/22 08:57:32;;;;;;;;;;;24.10;99.90;;;23.68;53.79;101867.44;3550043;39;102530;-40
2021/07/22 09:00:07;;;;;;;19.27;11.07;;;24.20;99.90;;;23.88;55.04;101862.16;3550486;39;102410;-41
2021/07/22 09:02:35;;;;;;;15.38;9.32;;;24.40;99.90;;;24.14;53.65;101863.03;3550279;39;102917;-40
2021/07/22 09:05:07;;;;;;;14.82;8.98;;;24.60;99.90;;;24.12;49.02;101865.22;3549776;39;103214;-38
2021/07/22 09:07:35;;;;;;;13.45;7.97;;;24.80;99.90;;;24.30;48.61;101863.84;3550729;39;103750;-41
2021/07/22 09:10:07;;;;;;;12.70;8.43;;;24.90;99.90;;;24.28;49.24;101863.28;3549921;39;102376;-40
2021/07/22 09:12:40;;;;;;;13.85;8.07;;;24.90;99.90;;;24.21;48.96;101855.22;3549967;39;102617;-40
2021/07/22 09:15:11;;;;;;;12.18;8.32;;;24.90;99.90;;;24.22;48.78;101870.81;3550561;39;104313;-40
2021/07/22 09:18:00;;;;;;;13.00;8.15;;;24.90;99.90;;;24.12;50.32;101854.09;3550312;39;102547;-41
2021/07/22 09:20:34;;;;;;;12.82;7.90;;;24.90;99.90;;;24.16;53.12;101858.00;3549889;39;102187;-41
2021/07/22 09:23:05;;;;;;;14.82;9.05;;;24.80;99.90;;;24.17;51.64;101865.25;3549725;39;103167;-39
2021/07/22 09:25:48;;;;;;;15.23;9.23;;;24.80;99.90;;;24.48;53.52;101862.41;3549328;39;102220;-43
2021/07/22 09:28:24;;;;;;;14.30;8.88;;;24.90;99.90;;;24.77;49.53;101859.03;3550303;39;102500;-40
2021/07/22 09:31:00;;;;;;;13.55;8.32;;;25.20;99.90;;;25.10;52.00;101855.81;3550491;39;104409;-41
2021/07/22 09:33:43;;;;;;;18.13;11.02;;;;;;;25.32;50.85;101852.63;3550280;39;103334;-40
2021/07/22 09:36:19;;;;;;;15.85;9.65;;;;;;;25.42;51.79;101857.31;3550172;39;102179;-41
2021/07/22 09:38:47;;;;;;;15.35;9.07;;;;;;;25.64;49.79;101850.50;3550227;39;102773;-41
2021/07/22 09:41:22;;;;;;;14.73;9.98;;;;;;;25.68;45.60;101852.41;3549996;39;104318;-43
2021/07/22 09:43:51;;;;;;;14.55;9.20;;;;;;;25.66;47.80;101854.66;3549601;39;102585;-40
2021/07/22 09:46:39;;;;;;;17.90;10.27;;;;;;;25.65;48.22;101850.19;3549426;39;103243;-40
2021/07/22 09:49:10;;;;;;;16.35;10.10;;;;;;;25.47;45.80;101840.53;3550098;39;102556;-41
2021/07/22 09:51:38;;;;;;;16.65;10.05;;;;;;;25.30;48.88;101849.28;3549994;39;102189;-40
2021/07/22 09:54:15;;;;;;;19.52;11.13;;;;;;;25.20;46.41;101846.56;3549725;39;102210;-42
2021/07/22 09:56:42;;;;;;;15.63;10.43;;;25.40;99.90;;;25.30;47.89;101842.84;3549513;39;102357;-41
2021/07/22 09:59:10;;;;;;;15.43;8.52;;;25.90;99.90;;;25.45;48.97;101841.91;3549848;39;102526;-40
2021/07/22 10:01:41;;;;;;;;;;;;;;;25.66;48.78;101815.53;3550763;39;104162;-41
2021/07/22 10:04:11;;;;;;;16.48;10.07;;;;;;;25.87;50.34;101839.72;3550060;39;102725;-41
2021/07/22 10:06:43;;;;;;;18.30;10.48;;;;;;;25.84;48.51;101839.13;3549404;39;103241;-40
2021/07/22 10:09:20;;;;;;;18.75;10.13;;;;;;;25.81;45.98;101836.94;3549725;39;102108;-41
2021/07/22 10:11:49;;;;;;;16.73;10.05;;;;;;;25.62;47.38;101839.59;3549970;39;102363;-40
2021/07/22 10:14:21;;;;;;;17.30;10.82;;;26.00;99.90;;;25.36;49.12;101838.94;3549383;39;102267;-41
2021/07/22 10:16:50;;;;;;;16.27;9.70;;;26.10;99.80;;;25.20;50.26;101839.00;3550608;39;102189;-40
2021/07/22 10:19:21;;;;;;;14.38;9.20;;;26.00;99.90;;;24.93;46.90;101840.25;3549557;39;102396;-40
2021/07/22 10:21:49;;;;;;;13.75;8.65;;;25.70;98.20;;;24.83;50.85;101832.75;3549547;39;103452;-40
2021/07/22 10:24:20;;;;;;;13.70;8.32;;;25.60;99.90;;;24.75;51.41;101830.56;3549847;39;102844;-40